KMSN/MSN METAR and TAF weather

Enter ICAO airport designator
Station Type Date Time Source
KMSN METAR 2019/10/21 22:53 UTC NOAA

KMSN 212253Z 22012G26KT 10SM -RA BKN046 BKN060 14/05 A2937 RMK AO2 PK WND 23029/2154 RAB51 SLP947 P0000 T01390050


Station Type Date Time Source
KMSN Decoded METAR 2019/10/21 22:53 UTC NOAA

MADISON DANE COUNTY RGNL, WI, United States (KMSN) 43-08N 89-21W 261M
Oct 21, 2019 - 06:53 PM EDT / 2019.10.21 2253 UTC
Wind: from the SW (220 degrees) at 14 MPH (12 KT) gusting to 30 MPH (26 KT):0
Visibility: 10 mile(s):0
Sky conditions: mostly cloudy
Weather: light rain
Precipitation last hour: A trace
Temperature: 57.0 F (13.9 C)
Dew Point: 41.0 F (5.0 C)
Relative Humidity: 54%
Pressure (altimeter): 29.37 in. Hg (994 hPa)
ob: KMSN 212253Z 22012G26KT 10SM -RA BKN046 BKN060 14/05 A2937 RMK AO2 PK WND 23029/2154 RAB51 SLP947 P0000 T01390050
cycle: 23

Station Type Date Time Source
KMSN TAF 2019/10/21 21:03 UTC NOAA

TAF
AMD KMSN 212100Z 2121/2218 21016G26KT P6SM SCT035 BKN050
FM220500 21016G28KT P6SM -SHRA OVC027
FM221500 26019G33KT P6SM VCSH OVC017

Example: see airport list